sensor_id;sensor_type;location;lat;lon;timestamp;temperature;humidity
52471;DHT22;38382;53.160;7.026;2023-10-19T00:00:02;7.90;99.90
52471;DHT22;38382;53.160;7.026;2023-10-19T00:02:46;8.00;99.90
52471;DHT22;38382;53.160;7.026;2023-10-19T00:05:11;8.00;99.90
52471;DHT22;38382;53.160;7.026;2023-10-19T00:07:40;7.90;99.90
52471;DHT22;38382;53.160;7.026;2023-10-19T00:10:06;7.90;99.90
52471;DHT22;38382;53.160;7.026;2023-10-19T00:12:32;7.90;99.90
52471;DHT22;38382;53.160;7.026;2023-10-19T00:14:58;7.90;99.90
52471;DHT22;38382;53.160;7.026;2023-10-19T00:17:25;7.90;99.90
52471;DHT22;38382;53.160;7.026;2023-10-19T00:19:53;7.90;99.90
52471;DHT22;38382;53.160;7.026;2023-10-19T00:22:37;7.80;99.90
52471;DHT22;38382;53.160;7.026;2023-10-19T00:25:03;7.80;99.90
52471;DHT22;38382;53.160;7.026;2023-10-19T00:27:29;7.90;99.90
52471;DHT22;38382;53.160;7.026;2023-10-19T00:29:55;7.80;99.90
52471;DHT22;38382;53.160;7.026;2023-10-19T00:32:31;7.80;99.90
52471;DHT22;38382;53.160;7.026;2023-10-19T00:34:57;7.90;99.90
52471;DHT22;38382;53.160;7.026;2023-10-19T00:37:25;7.80;99.90
52471;DHT22;38382;53.160;7.026;2023-10-19T00:39:55;7.80;99.90
52471;DHT22;38382;53.160;7.026;2023-10-19T00:42:22;7.80;99.90
52471;DHT22;38382;53.160;7.026;2023-10-19T00:44:55;7.80;99.90
52471;DHT22;38382;53.160;7.026;2023-10-19T00:47:29;7.90;99.90
52471;DHT22;38382;53.160;7.026;2023-10-19T00:50:06;7.80;99.90
52471;DHT22;38382;53.160;7.026;2023-10-19T00:52:40;7.80;99.90
52471;DHT22;38382;53.160;7.026;2023-10-19T00:55:13;7.80;99.90
52471;DHT22;38382;53.160;7.026;2023-10-19T00:57:40;7.80;99.90
52471;DHT22;38382;53.160;7.026;2023-10-19T01:00:08;7.80;99.90
52471;DHT22;38382;53.160;7.026;2023-10-19T01:02:41;7.80;99.90
52471;DHT22;38382;53.160;7.026;2023-10-19T01:05:10;7.80;99.90
52471;DHT22;38382;53.160;7.026;2023-10-19T01:07:39;7.70;99.90
52471;DHT22;38382;53.160;7.026;2023-10-19T01:10:10;7.70;99.90
52471;DHT22;38382;53.160;7.026;2023-10-19T01:12:54;7.80;99.90
52471;DHT22;38382;53.160;7.026;2023-10-19T01:15:21;7.70;99.90
52471;DHT22;38382;53.160;7.026;2023-10-19T01:17:58;7.80;99.90
52471;DHT22;38382;53.160;7.026;2023-10-19T01:20:29;7.70;99.90
52471;DHT22;38382;53.160;7.026;2023-10-19T01:23:05;7.80;99.90
52471;DHT22;38382;53.160;7.026;2023-10-19T01:28:12;7.70;99.90
52471;DHT22;38382;53.160;7.026;2023-10-19T01:30:43;7.70;99.90
52471;DHT22;38382;53.160;7.026;2023-10-19T01:33:17;7.70;99.90
52471;DHT22;38382;53.160;7.026;2023-10-19T01:35:47;7.80;99.90
52471;DHT22;38382;53.160;7.026;2023-10-19T01:38:32;7.70;99.90
52471;DHT22;38382;53.160;7.026;2023-10-19T01:40:58;7.70;99.90
52471;DHT22;38382;53.160;7.026;2023-10-19T01:43:31;7.70;99.90
52471;DHT22;38382;53.160;7.026;2023-10-19T01:45:58;7.80;99.90
52471;DHT22;38382;53.160;7.026;2023-10-19T01:48:29;7.70;99.90
52471;DHT22;38382;53.160;7.026;2023-10-19T01:51:05;7.70;99.90
52471;DHT22;38382;53.160;7.026;2023-10-19T01:53:33;7.70;99.90
52471;DHT22;38382;53.160;7.026;2023-10-19T01:56:05;7.60;99.90
52471;DHT22;38382;53.160;7.026;2023-10-19T01:58:31;7.70;99.90
52471;DHT22;38382;53.160;7.026;2023-10-19T02:01:03;7.70;99.90
52471;DHT22;38382;53.160;7.026;2023-10-19T02:03:35;7.70;99.90
52471;DHT22;38382;53.160;7.026;2023-10-19T02:06:02;7.70;99.90
52471;DHT22;38382;53.160;7.026;2023-10-19T02:08:46;7.60;99.90
52471;DHT22;38382;53.160;7.026;2023-10-19T02:11:15;7.60;99.90
52471;DHT22;38382;53.160;7.026;2023-10-19T02:13:48;7.60;99.90
52471;DHT22;38382;53.160;7.026;2023-10-19T02:16:19;7.70;99.90
52471;DHT22;38382;53.160;7.026;2023-10-19T02:18:51;7.60;99.90
52471;DHT22;38382;53.160;7.026;2023-10-19T02:21:18;7.60;99.90
52471;DHT22;38382;53.160;7.026;2023-10-19T02:23:56;7.60;99.90
52471;DHT22;38382;53.160;7.026;2023-10-19T02:26:23;7.60;99.90
52471;DHT22;38382;53.160;7.026;2023-10-19T02:28:53;7.70;99.90
52471;DHT22;38382;53.160;7.026;2023-10-19T02:31:20;7.70;99.90
52471;DHT22;38382;53.160;7.026;2023-10-19T02:33:50;7.60;99.90
52471;DHT22;38382;53.160;7.026;2023-10-19T02:36:29;6.30;99.90
52471;DHT22;38382;53.160;7.026;2023-10-19T02:39:00;7.60;99.90
52471;DHT22;38382;53.160;7.026;2023-10-19T02:41:37;7.60;99.90
52471;DHT22;38382;53.160;7.026;2023-10-19T02:44:04;7.60;99.90
52471;DHT22;38382;53.160;7.026;2023-10-19T02:46:33;7.70;99.90
52471;DHT22;38382;53.160;7.026;2023-10-19T02:49:07;7.60;99.90
52471;DHT22;38382;53.160;7.026;2023-10-19T02:51:37;7.80;99.90
52471;DHT22;38382;53.160;7.026;2023-10-19T02:54:04;7.60;99.90
52471;DHT22;38382;53.160;7.026;2023-10-19T02:56:31;7.60;99.90
52471;DHT22;38382;53.160;7.026;2023-10-19T02:58:57;7.60;99.90
52471;DHT22;38382;53.160;7.026;2023-10-19T03:01:33;7.50;99.90
52471;DHT22;38382;53.160;7.026;2023-10-19T03:04:00;7.60;99.90
52471;DHT22;38382;53.160;7.026;2023-10-19T03:06:28;7.60;99.90
52471;DHT22;38382;53.160;7.026;2023-10-19T03:08:59;7.60;99.90
52471;DHT22;38382;53.160;7.026;2023-10-19T03:11:28;7.60;99.90
52471;DHT22;38382;53.160;7.026;2023-10-19T03:13:54;7.70;99.90
52471;DHT22;38382;53.160;7.026;2023-10-19T03:16:21;7.80;99.90
52471;DHT22;38382;53.160;7.026;2023-10-19T03:18:47;7.60;99.90
52471;DHT22;38382;53.160;7.026;2023-10-19T03:21:13;7.60;99.90
52471;DHT22;38382;53.160;7.026;2023-10-19T03:23:39;7.60;99.90
52471;DHT22;38382;53.160;7.026;2023-10-19T03:26:06;7.60;99.90
52471;DHT22;38382;53.160;7.026;2023-10-19T03:28:51;7.90;99.90
52471;DHT22;38382;53.160;7.026;2023-10-19T03:31:46;7.60;99.90
52471;DHT22;38382;53.160;7.026;2023-10-19T03:34:13;8.10;99.90
52471;DHT22;38382;53.160;7.026;2023-10-19T03:36:39;7.60;99.90
52471;DHT22;38382;53.160;7.026;2023-10-19T03:39:05;7.60;99.90
52471;DHT22;38382;53.160;7.026;2023-10-19T03:41:40;7.60;99.90
52471;DHT22;38382;53.160;7.026;2023-10-19T03:44:13;7.60;99.90
52471;DHT22;38382;53.160;7.026;2023-10-19T03:46:59;7.60;99.90
52471;DHT22;38382;53.160;7.026;2023-10-19T03:49:30;7.70;99.90
52471;DHT22;38382;53.160;7.026;2023-10-19T03:52:01;7.60;99.90
52471;DHT22;38382;53.160;7.026;2023-10-19T03:54:36;7.70;99.90
52471;DHT22;38382;53.160;7.026;2023-10-19T03:57:12;7.60;99.90
52471;DHT22;38382;53.160;7.026;2023-10-19T03:59:38;7.60;99.90
52471;DHT22;38382;53.160;7.026;2023-10-19T04:02:04;7.60;99.90
52471;DHT22;38382;53.160;7.026;2023-10-19T04:04:45;8.30;99.90
52471;DHT22;38382;53.160;7.026;2023-10-19T04:07:14;7.60;99.90
52471;DHT22;38382;53.160;7.026;2023-10-19T04:09:47;7.70;99.90
52471;DHT22;38382;53.160;7.026;2023-10-19T04:12:39;7.70;99.90
52471;DHT22;38382;53.160;7.026;2023-10-19T04:15:08;7.70;99.90
52471;DHT22;38382;53.160;7.026;2023-10-19T04:17:37;7.70;99.90
52471;DHT22;38382;53.160;7.026;2023-10-19T04:20:05;7.70;99.90
52471;DHT22;38382;53.160;7.026;2023-10-19T04:22:53;7.70;99.90
52471;DHT22;38382;53.160;7.026;2023-10-19T04:25:19;7.70;99.90
52471;DHT22;38382;53.160;7.026;2023-10-19T04:27:47;7.90;99.90
52471;DHT22;38382;53.160;7.026;2023-10-19T04:30:15;7.70;99.90
52471;DHT22;38382;53.160;7.026;2023-10-19T04:32:48;7.70;99.90
52471;DHT22;38382;53.160;7.026;2023-10-19T04:35:15;7.80;99.90
52471;DHT22;38382;53.160;7.026;2023-10-19T04:37:50;7.80;99.90
52471;DHT22;38382;53.160;7.026;2023-10-19T04:40:21;7.70;99.90
52471;DHT22;38382;53.160;7.026;2023-10-19T04:42:50;7.70;99.90
52471;DHT22;38382;53.160;7.026;2023-10-19T04:45:16;7.70;99.90
52471;DHT22;38382;53.160;7.026;2023-10-19T04:47:42;7.80;99.90
52471;DHT22;38382;53.160;7.026;2023-10-19T04:50:08;7.90;99.90
52471;DHT22;38382;53.160;7.026;2023-10-19T04:52:38;7.70;99.90
52471;DHT22;38382;53.160;7.026;2023-10-19T04:55:04;7.70;99.90
52471;DHT22;38382;53.160;7.026;2023-10-19T04:57:30;7.80;99.90
52471;DHT22;38382;53.160;7.026;2023-10-19T04:59:56;7.80;99.90
52471;DHT22;38382;53.160;7.026;2023-10-19T05:02:22;7.80;99.90
52471;DHT22;38382;53.160;7.026;2023-10-19T05:04:49;7.80;99.90
52471;DHT22;38382;53.160;7.026;2023-10-19T05:07:15;7.70;99.90
52471;DHT22;38382;53.160;7.026;2023-10-19T05:09:44;7.80;99.90
52471;DHT22;38382;53.160;7.026;2023-10-19T05:12:10;7.80;99.90
52471;DHT22;38382;53.160;7.026;2023-10-19T05:14:38;7.80;99.90
52471;DHT22;38382;53.160;7.026;2023-10-19T05:17:04;7.80;99.90
52471;DHT22;38382;53.160;7.026;2023-10-19T05:19:31;8.20;99.90
52471;DHT22;38382;53.160;7.026;2023-10-19T05:21:57;7.80;99.90
52471;DHT22;38382;53.160;7.026;2023-10-19T05:24:23;7.80;99.90
52471;DHT22;38382;53.160;7.026;2023-10-19T05:26:49;7.80;99.90
52471;DHT22;38382;53.160;7.026;2023-10-19T05:29:15;7.80;99.90
52471;DHT22;38382;53.160;7.026;2023-10-19T05:31:41;7.80;99.90
52471;DHT22;38382;53.160;7.026;2023-10-19T05:34:07;7.80;99.90
52471;DHT22;38382;53.160;7.026;2023-10-19T05:36:33;7.70;99.90
52471;DHT22;38382;53.160;7.026;2023-10-19T05:38:59;7.70;99.90
52471;DHT22;38382;53.160;7.026;2023-10-19T05:41:25;7.80;99.90
52471;DHT22;38382;53.160;7.026;2023-10-19T05:43:52;7.80;99.90
52471;DHT22;38382;53.160;7.026;2023-10-19T05:46:19;7.70;99.90
52471;DHT22;38382;53.160;7.026;2023-10-19T05:48:48;7.80;99.90
52471;DHT22;38382;53.160;7.026;2023-10-19T05:51:14;7.70;99.90
52471;DHT22;38382;53.160;7.026;2023-10-19T05:53:41;7.80;99.90
52471;DHT22;38382;53.160;7.026;2023-10-19T05:56:07;7.20;99.90
52471;DHT22;38382;53.160;7.026;2023-10-19T05:58:33;7.70;99.90
52471;DHT22;38382;53.160;7.026;2023-10-19T06:00:59;7.80;99.90
52471;DHT22;38382;53.160;7.026;2023-10-19T06:03:25;7.90;99.90
52471;DHT22;38382;53.160;7.026;2023-10-19T06:05:51;7.80;99.90
52471;DHT22;38382;53.160;7.026;2023-10-19T06:08:17;7.70;99.90
52471;DHT22;38382;53.160;7.026;2023-10-19T06:10:43;7.80;99.90
52471;DHT22;38382;53.160;7.026;2023-10-19T06:13:09;7.70;99.90
52471;DHT22;38382;53.160;7.026;2023-10-19T06:15:35;7.80;99.90
52471;DHT22;38382;53.160;7.026;2023-10-19T06:18:01;7.80;99.90
52471;DHT22;38382;53.160;7.026;2023-10-19T06:20:27;7.80;99.90
52471;DHT22;38382;53.160;7.026;2023-10-19T06:22:53;7.80;99.90
52471;DHT22;38382;53.160;7.026;2023-10-19T06:25:22;7.80;99.90
52471;DHT22;38382;53.160;7.026;2023-10-19T06:27:49;7.80;99.90
52471;DHT22;38382;53.160;7.026;2023-10-19T06:33:56;7.90;99.90
52471;DHT22;38382;53.160;7.026;2023-10-19T06:36:22;7.80;99.90
52471;DHT22;38382;53.160;7.026;2023-10-19T06:38:48;7.10;99.90
52471;DHT22;38382;53.160;7.026;2023-10-19T06:41:16;7.80;99.90
52471;DHT22;38382;53.160;7.026;2023-10-19T06:43:44;7.80;99.90
52471;DHT22;38382;53.160;7.026;2023-10-19T06:46:09;7.80;99.90
52471;DHT22;38382;53.160;7.026;2023-10-19T06:48:37;7.80;99.90
52471;DHT22;38382;53.160;7.026;2023-10-19T06:51:03;7.80;99.90
52471;DHT22;38382;53.160;7.026;2023-10-19T06:53:28;7.80;99.90
52471;DHT22;38382;53.160;7.026;2023-10-19T06:55:54;7.80;99.90
52471;DHT22;38382;53.160;7.026;2023-10-19T06:58:21;7.80;99.90
52471;DHT22;38382;53.160;7.026;2023-10-19T07:00:46;7.80;99.90
52471;DHT22;38382;53.160;7.026;2023-10-19T07:03:22;7.90;99.90
52471;DHT22;38382;53.160;7.026;2023-10-19T07:05:48;7.90;99.90
52471;DHT22;38382;53.160;7.026;2023-10-19T07:08:15;7.90;99.90
52471;DHT22;38382;53.160;7.026;2023-10-19T07:10:41;7.90;99.90
52471;DHT22;38382;53.160;7.026;2023-10-19T07:13:08;7.90;99.90
52471;DHT22;38382;53.160;7.026;2023-10-19T07:15:34;7.90;99.90
52471;DHT22;38382;53.160;7.026;2023-10-19T07:18:00;7.90;99.90
52471;DHT22;38382;53.160;7.026;2023-10-19T07:20:25;8.00;99.90
52471;DHT22;38382;53.160;7.026;2023-10-19T07:22:53;8.00;99.90
52471;DHT22;38382;53.160;7.026;2023-10-19T07:25:20;7.90;99.90
52471;DHT22;38382;53.160;7.026;2023-10-19T07:27:50;8.00;99.90
52471;DHT22;38382;53.160;7.026;2023-10-19T07:30:20;8.00;99.90
52471;DHT22;38382;53.160;7.026;2023-10-19T07:32:48;8.00;99.90
52471;DHT22;38382;53.160;7.026;2023-10-19T07:35:18;7.90;99.90
52471;DHT22;38382;53.160;7.026;2023-10-19T07:37:44;8.00;99.90
52471;DHT22;38382;53.160;7.026;2023-10-19T07:40:10;7.80;99.90
52471;DHT22;38382;53.160;7.026;2023-10-19T07:42:40;6.70;99.90
52471;DHT22;38382;53.160;7.026;2023-10-19T07:45:06;8.00;99.90
52471;DHT22;38382;53.160;7.026;2023-10-19T07:47:43;7.90;99.90
52471;DHT22;38382;53.160;7.026;2023-10-19T07:50:11;8.00;99.90
52471;DHT22;38382;53.160;7.026;2023-10-19T07:52:43;7.90;99.90
52471;DHT22;38382;53.160;7.026;2023-10-19T07:55:13;8.00;99.90
52471;DHT22;38382;53.160;7.026;2023-10-19T07:57:39;8.00;99.90
52471;DHT22;38382;53.160;7.026;2023-10-19T08:00:11;8.10;99.90
52471;DHT22;38382;53.160;7.026;2023-10-19T08:02:39;8.10;99.90
52471;DHT22;38382;53.160;7.026;2023-10-19T08:05:11;8.20;99.90
52471;DHT22;38382;53.160;7.026;2023-10-19T08:07:38;8.10;99.90
52471;DHT22;38382;53.160;7.026;2023-10-19T08:10:06;8.20;99.90
52471;DHT22;38382;53.160;7.026;2023-10-19T08:12:35;8.20;99.90
52471;DHT22;38382;53.160;7.026;2023-10-19T08:15:02;6.80;99.90
52471;DHT22;38382;53.160;7.026;2023-10-19T08:17:29;8.30;99.90
52471;DHT22;38382;53.160;7.026;2023-10-19T08:19:55;8.10;99.90
52471;DHT22;38382;53.160;7.026;2023-10-19T08:22:23;8.10;99.90
52471;DHT22;38382;53.160;7.026;2023-10-19T08:24:49;9.30;99.90
52471;DHT22;38382;53.160;7.026;2023-10-19T08:27:17;8.10;99.90
52471;DHT22;38382;53.160;7.026;2023-10-19T08:29:44;8.10;99.90
52471;DHT22;38382;53.160;7.026;2023-10-19T08:32:12;8.20;99.90
52471;DHT22;38382;53.160;7.026;2023-10-19T08:34:39;8.10;99.90
52471;DHT22;38382;53.160;7.026;2023-10-19T08:37:06;8.20;99.90
52471;DHT22;38382;53.160;7.026;2023-10-19T08:39:32;8.20;99.90
52471;DHT22;38382;53.160;7.026;2023-10-19T08:42:04;8.10;99.90
52471;DHT22;38382;53.160;7.026;2023-10-19T08:44:31;8.20;99.90
52471;DHT22;38382;53.160;7.026;2023-10-19T09:06:03;8.30;99.90
52471;DHT22;38382;53.160;7.026;2023-10-19T09:08:31;8.20;99.90
52471;DHT22;38382;53.160;7.026;2023-10-19T09:11:13;8.30;99.90
52471;DHT22;38382;53.160;7.026;2023-10-19T09:13:51;8.20;99.90
52471;DHT22;38382;53.160;7.026;2023-10-19T09:16:24;8.40;99.90
52471;DHT22;38382;53.160;7.026;2023-10-19T09:18:50;8.40;99.90
52471;DHT22;38382;53.160;7.026;2023-10-19T09:21:22;7.50;99.90
52471;DHT22;38382;53.160;7.026;2023-10-19T09:23:57;8.30;99.90
52471;DHT22;38382;53.160;7.026;2023-10-19T09:26:50;8.50;99.90
52471;DHT22;38382;53.160;7.026;2023-10-19T09:29:27;8.40;99.90
52471;DHT22;38382;53.160;7.026;2023-10-19T09:31:53;8.40;99.90
52471;DHT22;38382;53.160;7.026;2023-10-19T09:34:24;8.50;99.90
52471;DHT22;38382;53.160;7.026;2023-10-19T09:37:19;8.50;99.90
52471;DHT22;38382;53.160;7.026;2023-10-19T09:40:05;8.60;99.90
52471;DHT22;38382;53.160;7.026;2023-10-19T09:42:38;8.70;99.90
52471;DHT22;38382;53.160;7.026;2023-10-19T09:45:13;8.50;99.90
52471;DHT22;38382;53.160;7.026;2023-10-19T09:47:50;8.50;99.90
52471;DHT22;38382;53.160;7.026;2023-10-19T09:50:34;8.70;99.90
52471;DHT22;38382;53.160;7.026;2023-10-19T09:53:04;8.70;99.90
52471;DHT22;38382;53.160;7.026;2023-10-19T09:55:34;8.60;99.90
52471;DHT22;38382;53.160;7.026;2023-10-19T09:58:09;8.60;99.90
52471;DHT22;38382;53.160;7.026;2023-10-19T10:01:00;8.60;99.90
52471;DHT22;38382;53.160;7.026;2023-10-19T10:06:14;8.80;99.90
52471;DHT22;38382;53.160;7.026;2023-10-19T10:08:47;9.00;99.90
52471;DHT22;38382;53.160;7.026;2023-10-19T10:11:57;8.80;99.90
52471;DHT22;38382;53.160;7.026;2023-10-19T10:25:58;9.00;99.90
52471;DHT22;38382;53.160;7.026;2023-10-19T10:28:39;8.90;99.90
52471;DHT22;38382;53.160;7.026;2023-10-19T10:35:01;9.10;99.90
52471;DHT22;38382;53.160;7.026;2023-10-19T10:41:26;9.20;99.90
52471;DHT22;38382;53.160;7.026;2023-10-19T10:43:58;8.60;99.90
52471;DHT22;38382;53.160;7.026;2023-10-19T10:46:44;9.10;99.90
52471;DHT22;38382;53.160;7.026;2023-10-19T10:49:22;10.50;99.90
52471;DHT22;38382;53.160;7.026;2023-10-19T10:52:32;9.30;99.90
52471;DHT22;38382;53.160;7.026;2023-10-19T10:55:08;9.20;99.90
52471;DHT22;38382;53.160;7.026;2023-10-19T10:57:37;9.10;99.90
52471;DHT22;38382;53.160;7.026;2023-10-19T11:03:30;9.20;99.90
52471;DHT22;38382;53.160;7.026;2023-10-19T11:10:12;8.10;99.90
52471;DHT22;38382;53.160;7.026;2023-10-19T11:12:47;8.90;99.90
52471;DHT22;38382;53.160;7.026;2023-10-19T11:18:39;9.30;99.90
52471;DHT22;38382;53.160;7.026;2023-10-19T11:21:12;9.20;99.90
52471;DHT22;38382;53.160;7.026;2023-10-19T11:23:48;9.20;99.90
52471;DHT22;38382;53.160;7.026;2023-10-19T11:26:20;10.00;99.90
52471;DHT22;38382;53.160;7.026;2023-10-19T11:31:25;9.30;99.90
52471;DHT22;38382;53.160;7.026;2023-10-19T11:33:52;9.30;99.90
52471;DHT22;38382;53.160;7.026;2023-10-19T11:36:20;9.30;99.90
52471;DHT22;38382;53.160;7.026;2023-10-19T11:39:03;9.30;99.90
52471;DHT22;38382;53.160;7.026;2023-10-19T11:43:58;9.20;99.90
52471;DHT22;38382;53.160;7.026;2023-10-19T11:46:25;9.20;99.90
52471;DHT22;38382;53.160;7.026;2023-10-19T11:48:51;9.10;99.90
52471;DHT22;38382;53.160;7.026;2023-10-19T11:51:17;9.20;99.90
52471;DHT22;38382;53.160;7.026;2023-10-19T11:53:43;9.20;99.90
52471;DHT22;38382;53.160;7.026;2023-10-19T11:56:11;9.10;99.90
52471;DHT22;38382;53.160;7.026;2023-10-19T11:58:39;9.00;99.90
52471;DHT22;38382;53.160;7.026;2023-10-19T12:01:08;9.00;99.90
52471;DHT22;38382;53.160;7.026;2023-10-19T12:03:36;9.10;99.90
52471;DHT22;38382;53.160;7.026;2023-10-19T12:06:06;9.00;99.90
52471;DHT22;38382;53.160;7.026;2023-10-19T12:08:36;7.90;99.90
52471;DHT22;38382;53.160;7.026;2023-10-19T12:11:03;9.00;99.90
52471;DHT22;38382;53.160;7.026;2023-10-19T12:13:30;9.10;99.90
52471;DHT22;38382;53.160;7.026;2023-10-19T12:15:57;9.10;99.90
52471;DHT22;38382;53.160;7.026;2023-10-19T12:18:26;9.20;99.90
52471;DHT22;38382;53.160;7.026;2023-10-19T12:20:54;9.10;99.90
52471;DHT22;38382;53.160;7.026;2023-10-19T12:23:26;9.20;99.90
52471;DHT22;38382;53.160;7.026;2023-10-19T12:25:52;9.20;99.90
52471;DHT22;38382;53.160;7.026;2023-10-19T12:28:18;9.20;99.90
52471;DHT22;38382;53.160;7.026;2023-10-19T12:30:44;9.30;99.90
52471;DHT22;38382;53.160;7.026;2023-10-19T12:33:11;9.30;99.90
52471;DHT22;38382;53.160;7.026;2023-10-19T12:35:43;9.30;99.90
52471;DHT22;38382;53.160;7.026;2023-10-19T12:38:19;9.50;99.90
52471;DHT22;38382;53.160;7.026;2023-10-19T12:40:47;9.50;99.90
52471;DHT22;38382;53.160;7.026;2023-10-19T12:43:16;9.40;99.90
52471;DHT22;38382;53.160;7.026;2023-10-19T12:45:45;9.40;99.90
52471;DHT22;38382;53.160;7.026;2023-10-19T12:48:16;9.40;99.90
52471;DHT22;38382;53.160;7.026;2023-10-19T12:50:42;9.30;99.90
52471;DHT22;38382;53.160;7.026;2023-10-19T12:53:08;9.20;99.90
52471;DHT22;38382;53.160;7.026;2023-10-19T12:55:35;9.30;99.90
52471;DHT22;38382;53.160;7.026;2023-10-19T12:58:04;9.20;99.90
52471;DHT22;38382;53.160;7.026;2023-10-19T13:00:37;9.20;99.90
52471;DHT22;38382;53.160;7.026;2023-10-19T13:03:14;9.20;99.90
52471;DHT22;38382;53.160;7.026;2023-10-19T13:05:42;9.20;99.90
52471;DHT22;38382;53.160;7.026;2023-10-19T13:08:13;9.20;99.90
52471;DHT22;38382;53.160;7.026;2023-10-19T13:10:40;9.20;99.90
52471;DHT22;38382;53.160;7.026;2023-10-19T13:13:11;9.10;99.90
52471;DHT22;38382;53.160;7.026;2023-10-19T13:15:38;9.00;99.90
52471;DHT22;38382;53.160;7.026;2023-10-19T13:18:06;9.00;99.90
52471;DHT22;38382;53.160;7.026;2023-10-19T13:20:33;9.10;99.90
52471;DHT22;38382;53.160;7.026;2023-10-19T13:23:07;9.60;99.90
52471;DHT22;38382;53.160;7.026;2023-10-19T13:25:39;9.10;99.90
52471;DHT22;38382;53.160;7.026;2023-10-19T13:28:13;9.00;99.90
52471;DHT22;38382;53.160;7.026;2023-10-19T13:30:47;9.00;99.90
52471;DHT22;38382;53.160;7.026;2023-10-19T13:33:13;9.10;99.90
52471;DHT22;38382;53.160;7.026;2023-10-19T13:35:41;9.10;99.90
52471;DHT22;38382;53.160;7.026;2023-10-19T13:38:08;9.10;99.90
52471;DHT22;38382;53.160;7.026;2023-10-19T13:40:35;9.00;99.90
52471;DHT22;38382;53.160;7.026;2023-10-19T13:43:04;9.10;99.90
52471;DHT22;38382;53.160;7.026;2023-10-19T13:45:33;9.00;99.90
52471;DHT22;38382;53.160;7.026;2023-10-19T13:48:03;9.10;99.90
52471;DHT22;38382;53.160;7.026;2023-10-19T13:50:32;9.00;99.90
52471;DHT22;38382;53.160;7.026;2023-10-19T13:52:59;9.00;99.90
52471;DHT22;38382;53.160;7.026;2023-10-19T13:55:29;9.00;99.90
52471;DHT22;38382;53.160;7.026;2023-10-19T13:57:55;9.10;99.90
52471;DHT22;38382;53.160;7.026;2023-10-19T14:00:23;9.10;99.90
52471;DHT22;38382;53.160;7.026;2023-10-19T14:02:52;9.10;99.90
52471;DHT22;38382;53.160;7.026;2023-10-19T14:05:20;9.60;99.90
52471;DHT22;38382;53.160;7.026;2023-10-19T14:07:49;9.10;99.90
52471;DHT22;38382;53.160;7.026;2023-10-19T14:10:14;9.20;99.90
52471;DHT22;38382;53.160;7.026;2023-10-19T15:33:56;9.60;99.90
52471;DHT22;38382;53.160;7.026;2023-10-19T15:36:23;9.00;99.90
52471;DHT22;38382;53.160;7.026;2023-10-19T15:38:48;8.80;99.90
52471;DHT22;38382;53.160;7.026;2023-10-19T15:41:16;8.80;99.90
52471;DHT22;38382;53.160;7.026;2023-10-19T15:43:42;8.80;99.90
52471;DHT22;38382;53.160;7.026;2023-10-19T15:48:39;8.80;99.90
52471;DHT22;38382;53.160;7.026;2023-10-19T15:51:05;8.80;99.90
52471;DHT22;38382;53.160;7.026;2023-10-19T15:53:35;8.00;99.90
52471;DHT22;38382;53.160;7.026;2023-10-19T15:56:02;8.80;99.90
52471;DHT22;38382;53.160;7.026;2023-10-19T15:58:28;8.70;99.90
52471;DHT22;38382;53.160;7.026;2023-10-19T16:00:54;8.80;99.90
52471;DHT22;38382;53.160;7.026;2023-10-19T16:03:20;8.70;99.90
52471;DHT22;38382;53.160;7.026;2023-10-19T16:05:46;8.70;99.90
52471;DHT22;38382;53.160;7.026;2023-10-19T16:08:12;8.70;99.90
52471;DHT22;38382;53.160;7.026;2023-10-19T16:10:38;8.70;99.90
52471;DHT22;38382;53.160;7.026;2023-10-19T16:13:03;8.70;99.90
52471;DHT22;38382;53.160;7.026;2023-10-19T16:15:29;8.70;99.90
52471;DHT22;38382;53.160;7.026;2023-10-19T16:17:55;8.70;99.90
52471;DHT22;38382;53.160;7.026;2023-10-19T16:20:21;8.60;99.90
52471;DHT22;38382;53.160;7.026;2023-10-19T16:22:47;8.60;99.90
52471;DHT22;38382;53.160;7.026;2023-10-19T16:25:13;8.70;99.90
52471;DHT22;38382;53.160;7.026;2023-10-19T16:27:39;8.60;99.90
52471;DHT22;38382;53.160;7.026;2023-10-19T16:30:06;8.60;99.90
52471;DHT22;38382;53.160;7.026;2023-10-19T16:32:38;8.60;99.90
52471;DHT22;38382;53.160;7.026;2023-10-19T16:35:06;8.60;99.90
52471;DHT22;38382;53.160;7.026;2023-10-19T16:37:34;8.60;99.90
52471;DHT22;38382;53.160;7.026;2023-10-19T16:40:00;8.60;99.90
52471;DHT22;38382;53.160;7.026;2023-10-19T16:42:26;8.60;99.90
52471;DHT22;38382;53.160;7.026;2023-10-19T16:44:52;8.60;99.90
52471;DHT22;38382;53.160;7.026;2023-10-19T16:47:18;8.50;99.90
52471;DHT22;38382;53.160;7.026;2023-10-19T16:49:47;8.60;99.90
52471;DHT22;38382;53.160;7.026;2023-10-19T16:52:13;8.50;99.90
52471;DHT22;38382;53.160;7.026;2023-10-19T16:54:39;8.50;99.90
52471;DHT22;38382;53.160;7.026;2023-10-19T16:57:05;8.50;99.90
52471;DHT22;38382;53.160;7.026;2023-10-19T16:59:32;8.50;99.90
52471;DHT22;38382;53.160;7.026;2023-10-19T17:01:59;8.50;99.90
52471;DHT22;38382;53.160;7.026;2023-10-19T17:04:25;8.50;99.90
52471;DHT22;38382;53.160;7.026;2023-10-19T17:06:51;8.40;99.90
52471;DHT22;38382;53.160;7.026;2023-10-19T17:09:21;8.40;99.90
52471;DHT22;38382;53.160;7.026;2023-10-19T17:11:51;8.50;99.90
52471;DHT22;38382;53.160;7.026;2023-10-19T17:14:20;8.40;99.90
52471;DHT22;38382;53.160;7.026;2023-10-19T17:20:41;8.40;99.90
52471;DHT22;38382;53.160;7.026;2023-10-19T17:27:29;7.90;99.90
52471;DHT22;38382;53.160;7.026;2023-10-19T17:29:54;8.50;99.90
52471;DHT22;38382;53.160;7.026;2023-10-19T17:32:20;8.30;99.90
52471;DHT22;38382;53.160;7.026;2023-10-19T17:34:45;8.50;99.90
52471;DHT22;38382;53.160;7.026;2023-10-19T17:37:17;8.30;99.90
52471;DHT22;38382;53.160;7.026;2023-10-19T17:39:43;8.30;99.90
52471;DHT22;38382;53.160;7.026;2023-10-19T17:42:13;8.30;99.90
52471;DHT22;38382;53.160;7.026;2023-10-19T17:44:39;8.50;99.90
52471;DHT22;38382;53.160;7.026;2023-10-19T17:47:08;8.20;99.90
52471;DHT22;38382;53.160;7.026;2023-10-19T17:49:46;8.30;99.90
52471;DHT22;38382;53.160;7.026;2023-10-19T17:52:16;8.30;99.90
52471;DHT22;38382;53.160;7.026;2023-10-19T17:54:49;8.30;99.90
52471;DHT22;38382;53.160;7.026;2023-10-19T17:57:15;8.20;99.90
52471;DHT22;38382;53.160;7.026;2023-10-19T17:59:42;8.10;99.90
52471;DHT22;38382;53.160;7.026;2023-10-19T18:02:08;8.30;99.90
52471;DHT22;38382;53.160;7.026;2023-10-19T18:04:39;8.20;99.90
52471;DHT22;38382;53.160;7.026;2023-10-19T18:10:48;8.30;99.90
52471;DHT22;38382;53.160;7.026;2023-10-19T18:13:14;8.20;99.90
52471;DHT22;38382;53.160;7.026;2023-10-19T18:15:39;8.10;99.90
52471;DHT22;38382;53.160;7.026;2023-10-19T18:18:05;8.10;99.90
52471;DHT22;38382;53.160;7.026;2023-10-19T18:20:32;8.20;99.90
52471;DHT22;38382;53.160;7.026;2023-10-19T18:22:58;8.20;99.90
52471;DHT22;38382;53.160;7.026;2023-10-19T18:25:25;8.10;99.90
52471;DHT22;38382;53.160;7.026;2023-10-19T18:27:54;8.10;99.90
52471;DHT22;38382;53.160;7.026;2023-10-19T18:30:21;8.10;99.90
52471;DHT22;38382;53.160;7.026;2023-10-19T18:32:46;8.10;99.90
52471;DHT22;38382;53.160;7.026;2023-10-19T18:35:15;8.00;99.90
52471;DHT22;38382;53.160;7.026;2023-10-19T18:37:41;8.00;99.90